Algodones, New Mexico
Current Conditions -  °F | °C
As of 7:52 PM on Wednesday 22 Oct 2014 (Local Time) from KABQ Reporting Station
Few Clouds Few Clouds  
Wind Chill: 66°   Ceiling: Unl
Heat Index: 66°   Visibility: 10mi
Dew Point: 40°   Wind: 6mph
Humidity: 38%   Direction: 170°S
Pressure: 30.16"   Gusts: NA
Location:  35.38°N, 106.48°W
Report Text: KABQ 230152Z 17005KT 10SM FEW100 FEW200 19/04 A3016 RMK AO2 SLP157 T01890044
Loading
Personal Weather Stations






























Interactive Weather Map New forecast layout! Learn more

10-Day Weather Forecast

Advertisements
Track Severe Weather on mobile